Time;durP1;ratioP1;P1;durP2;ratioP2;P2;SDS_P1;SDS_P2;PMS_P1;PMS_P2;Temp;Humidity;BMP_temperature;BMP_pressure;BME280_temperature;BME280_humidity;BME280_pressure;Samples;Min_cycle;Max_cycle;Signal;HPM_P1;HPM_P2
2023/11/14 00:01:18;;;;;;;7.33;2.57;;;9.40;99.90;;;;;;5078908;28;20517;-61
2023/11/14 00:03:45;;;;;;;16.37;4.07;;;9.50;99.90;;;;;;5078884;28;20478;-59
2023/11/14 00:06:21;;;;;;;11.50;2.40;;;9.50;99.90;;;;;;5079470;28;20534;-60
2023/11/14 00:08:49;;;;;;;4.93;2.00;;;9.50;99.90;;;;;;5080953;28;20446;-60
2023/11/14 00:11:17;;;;;;;4.20;2.10;;;9.50;99.90;;;;;;5082668;28;20536;-61
2023/11/14 00:13:46;;;;;;;6.83;1.90;;;9.60;99.90;;;;;;5080763;28;20446;-61
2023/11/14 00:16:13;;;;;;;8.10;1.77;;;9.60;99.90;;;;;;5079078;28;20911;-60
2023/11/14 00:18:41;;;;;;;4.60;2.37;;;9.60;99.90;;;;;;5080508;28;20461;-60
2023/11/14 00:21:08;;;;;;;6.40;2.73;;;9.70;99.90;;;;;;5080809;28;20426;-61
2023/11/14 00:23:35;;;;;;;4.47;1.80;;;9.70;99.90;;;;;;5079737;28;20494;-61
2023/11/14 00:26:03;;;;;;;5.20;2.33;;;9.60;99.90;;;;;;5079070;28;20450;-61
2023/11/14 00:28:31;;;;;;;7.70;2.53;;;9.60;99.90;;;;;;5079030;28;20525;-61
2023/11/14 00:31:00;;;;;;;7.83;2.67;;;9.60;99.90;;;;;;5079163;28;20438;-60
2023/11/14 00:33:27;;;;;;;14.93;2.93;;;9.60;99.90;;;;;;5079082;28;20525;-59
2023/11/14 00:35:55;;;;;;;6.87;2.37;;;9.60;99.90;;;;;;5078462;28;20474;-61
2023/11/14 00:38:22;;;;;;;4.83;2.30;;;9.60;99.90;;;;;;5079261;28;20533;-59
2023/11/14 00:40:49;;;;;;;10.73;3.60;;;9.60;99.90;;;;;;5078814;28;20474;-59
2023/11/14 00:43:16;;;;;;;9.40;2.60;;;9.60;99.90;;;;;;5078664;28;20995;-61
2023/11/14 00:45:43;;;;;;;4.70;2.13;;;9.50;99.90;;;;;;5079072;28;20842;-59
2023/11/14 00:48:11;;;;;;;11.33;3.17;;;9.50;99.90;;;;;;5078712;28;20490;-60
2023/11/14 00:50:38;;;;;;;6.40;3.07;;;9.50;99.90;;;;;;5078404;28;20500;-60
2023/11/14 00:53:05;;;;;;;5.03;2.53;;;9.50;99.90;;;;;;5078664;28;20450;-59
2023/11/14 00:55:33;;;;;;;5.53;1.83;;;9.50;99.90;;;;;;5079373;28;20994;-57
2023/11/14 00:58:00;;;;;;;6.50;2.10;;;9.50;99.90;;;;;;5079041;28;20446;-59
2023/11/14 01:00:27;;;;;;;5.73;1.90;;;9.50;99.90;;;;;;5081844;28;20545;-59
2023/11/14 01:03:00;;;;;;;11.03;2.10;;;9.50;99.90;;;;;;5082728;28;20441;-58
2023/11/14 01:05:28;;;;;;;3.67;2.17;;;9.50;99.90;;;;;;5082115;28;20881;-61
2023/11/14 01:07:55;;;;;;;9.70;3.37;;;9.50;99.90;;;;;;5082989;28;20418;-58
2023/11/14 01:10:22;;;;;;;5.40;2.10;;;9.50;99.90;;;;;;5082678;28;20449;-60
2023/11/14 01:12:52;;;;;;;11.00;3.93;;;9.40;99.90;;;;;;5082075;28;20462;-60
2023/11/14 01:15:19;;;;;;;10.27;2.37;;;9.40;99.90;;;;;;5083337;28;20438;-59
2023/11/14 01:17:46;;;;;;;6.80;2.37;;;9.40;99.90;;;;;;5082310;28;20976;-60
2023/11/14 01:20:13;;;;;;;8.13;2.50;;;9.40;99.90;;;;;;5082954;28;20453;-60
2023/11/14 01:22:42;;;;;;;4.93;2.53;;;9.40;99.90;;;;;;5081851;28;20977;-61
2023/11/14 01:25:09;;;;;;;8.97;2.53;;;9.40;99.90;;;;;;5081875;28;20521;-60
2023/11/14 01:27:36;;;;;;;11.90;2.40;;;9.40;99.90;;;;;;5082218;28;20472;-60
2023/11/14 01:30:03;;;;;;;9.13;2.70;;;9.40;99.90;;;;;;5082778;28;20462;-60
2023/11/14 01:32:30;;;;;;;10.97;4.47;;;9.40;99.90;;;;;;5082281;28;20864;-60
2023/11/14 01:34:58;;;;;;;7.57;2.57;;;9.50;99.90;;;;;;5082111;28;20446;-60
2023/11/14 01:37:25;;;;;;;13.60;3.87;;;9.40;99.90;;;;;;5080991;28;20466;-61
2023/11/14 01:39:53;;;;;;;6.50;2.70;;;9.40;99.90;;;;;;5081719;28;20527;-60
2023/11/14 01:42:20;;;;;;;8.57;2.97;;;9.40;99.90;;;;;;5081419;28;20470;-61
2023/11/14 01:44:47;;;;;;;11.33;2.93;;;9.40;99.90;;;;;;5081940;28;20959;-60
2023/11/14 01:47:16;;;;;;;13.97;2.20;;;9.40;99.90;;;;;;5081877;28;20746;-61
2023/11/14 01:49:45;;;;;;;3.43;1.67;;;9.40;99.90;;;;;;5081480;28;20537;-61
2023/11/14 01:52:14;;;;;;;7.63;2.67;;;9.40;99.90;;;;;;5082196;28;20472;-58
2023/11/14 01:54:42;;;;;;;5.27;2.73;;;9.40;99.90;;;;;;5081860;28;20443;-60
2023/11/14 01:57:12;;;;;;;4.80;2.53;;;9.40;99.90;;;;;;5081584;28;20517;-62
2023/11/14 01:59:41;;;;;;;6.77;2.67;;;9.40;99.90;;;;;;5081714;28;20513;-61
2023/11/14 02:02:09;;;;;;;5.37;2.83;;;9.40;99.90;;;;;;5081930;28;20645;-59
2023/11/14 02:04:37;;;;;;;8.77;5.70;;;9.40;99.90;;;;;;5081820;28;20478;-59
2023/11/14 02:07:08;;;;;;;15.80;3.57;;;9.40;99.90;;;;;;5081543;28;20855;-59
2023/11/14 02:09:39;;;;;;;9.40;2.33;;;9.40;99.90;;;;;;5081722;28;20426;-59
2023/11/14 02:12:12;;;;;;;7.60;2.63;;;8.50;99.90;;;;;;5080458;28;20521;-60
2023/11/14 02:14:39;;;;;;;14.03;2.83;;;9.80;99.90;;;;;;5080742;28;20434;-61
2023/11/14 02:17:05;;;;;;;11.00;3.50;;;9.40;99.90;;;;;;5081700;28;20515;-61
2023/11/14 02:19:32;;;;;;;11.30;2.20;;;9.40;99.90;;;;;;5080864;28;20509;-61
2023/11/14 02:21:59;;;;;;;5.93;3.10;;;9.40;99.90;;;;;;5081256;28;20442;-60
2023/11/14 02:24:28;;;;;;;5.13;3.10;;;9.40;99.90;;;;;;5081071;28;20478;-60
2023/11/14 02:26:56;;;;;;;10.40;2.50;;;9.40;99.90;;;;;;5081536;28;20588;-61
2023/11/14 02:29:24;;;;;;;21.00;3.47;;;9.30;99.90;;;;;;5081318;28;20776;-60
2023/11/14 02:31:51;;;;;;;11.53;2.93;;;9.40;99.90;;;;;;5081177;28;20538;-60
2023/11/14 02:34:18;;;;;;;8.17;2.67;;;9.30;99.90;;;;;;5081444;28;20443;-59
2023/11/14 02:36:45;;;;;;;9.57;3.00;;;9.30;99.90;;;;;;5080626;28;20450;-58
2023/11/14 02:39:13;;;;;;;8.27;3.00;;;9.30;99.90;;;;;;5080315;28;20505;-61
2023/11/14 02:41:40;;;;;;;3.87;2.13;;;9.30;99.90;;;;;;5081189;28;20936;-60
2023/11/14 02:44:08;;;;;;;9.47;3.30;;;9.20;99.90;;;;;;5080702;28;20879;-61
2023/11/14 02:46:35;;;;;;;17.67;5.77;;;9.20;99.90;;;;;;5081799;28;20482;-60
2023/11/14 02:49:23;;;;;;;10.30;3.07;;;9.20;99.90;;;;;;5080660;28;20438;-60
2023/11/14 02:51:50;;;;;;;19.60;3.20;;;9.20;99.90;;;;;;5080857;28;20543;-60
2023/11/14 02:54:18;;;;;;;19.23;2.20;;;9.20;99.90;;;;;;5079939;28;20537;-61
2023/11/14 02:56:44;;;;;;;8.00;2.53;;;9.20;99.90;;;;;;5080730;28;20466;-60
2023/11/14 02:59:14;;;;;;;4.50;2.20;;;9.20;99.90;;;;;;5081034;28;20525;-61
2023/11/14 03:01:43;;;;;;;5.57;2.57;;;9.20;99.90;;;;;;5080659;28;20464;-61
2023/11/14 03:04:09;;;;;;;8.67;2.67;;;9.20;99.90;;;;;;5079744;28;20474;-59
2023/11/14 03:06:39;;;;;;;9.43;3.10;;;9.20;99.90;;;;;;5080117;28;20442;-59
2023/11/14 03:09:06;;;;;;;7.83;3.40;;;9.20;99.90;;;;;;5080736;28;20481;-60
2023/11/14 03:11:33;;;;;;;6.67;2.43;;;9.30;99.90;;;;;;5080262;28;20477;-61
2023/11/14 03:14:01;;;;;;;8.53;2.47;;;9.30;99.90;;;;;;5080528;28;20442;-60
2023/11/14 03:16:30;;;;;;;4.90;2.53;;;9.30;99.90;;;;;;5080571;28;20960;-59
2023/11/14 03:18:56;;;;;;;9.03;2.20;;;9.40;99.90;;;;;;5080619;28;20454;-59
2023/11/14 03:21:23;;;;;;;4.40;2.20;;;9.50;99.90;;;;;;5079666;28;20502;-57
2023/11/14 03:23:50;;;;;;;7.90;2.70;;;9.50;99.90;;;;;;5080508;28;20446;-62
2023/11/14 03:26:19;;;;;;;14.90;3.20;;;9.60;99.90;;;;;;5080745;28;20733;-59
2023/11/14 03:28:46;;;;;;;8.13;3.37;;;9.60;99.90;;;;;;5080304;28;20492;-60
2023/11/14 03:31:13;;;;;;;8.87;2.67;;;9.70;99.90;;;;;;5079692;28;20512;-60
2023/11/14 03:33:41;;;;;;;6.13;2.20;;;9.70;99.90;;;;;;5079842;28;20466;-59
2023/11/14 03:36:08;;;;;;;13.03;3.17;;;9.70;99.90;;;;;;5080113;28;20517;-60
2023/11/14 03:38:35;;;;;;;9.30;2.23;;;9.70;99.90;;;;;;5080014;28;20482;-61
2023/11/14 03:41:02;;;;;;;7.03;2.53;;;9.70;99.90;;;;;;5080057;28;20446;-59
2023/11/14 03:43:29;;;;;;;12.37;3.37;;;9.80;99.90;;;;;;5079559;28;20824;-61
2023/11/14 03:45:56;;;;;;;4.97;2.60;;;9.80;99.90;;;;;;5079260;28;20581;-60
2023/11/14 03:48:23;;;;;;;4.60;2.87;;;9.80;99.90;;;;;;5079664;28;20522;-60
2023/11/14 03:50:51;;;;;;;12.17;3.03;;;9.80;99.90;;;;;;5079225;28;20449;-60
2023/11/14 03:53:19;;;;;;;7.00;2.20;;;9.90;99.90;;;;;;5078866;28;20438;-60
2023/11/14 03:55:46;;;;;;;11.70;2.13;;;10.00;99.90;;;;;;5078829;28;20438;-60
2023/11/14 03:58:13;;;;;;;6.30;2.47;;;10.00;99.90;;;;;;5078780;28;20569;-58
2023/11/14 04:00:40;;;;;;;8.70;2.80;;;10.00;99.90;;;;;;5079265;28;20478;-58
2023/11/14 04:03:07;;;;;;;6.70;2.60;;;10.00;99.90;;;;;;5079266;28;20442;-60
2023/11/14 04:05:35;;;;;;;6.10;2.03;;;10.00;99.90;;;;;;5079732;28;20478;-61
2023/11/14 04:08:04;;;;;;;11.67;4.47;;;10.10;99.90;;;;;;5079640;28;20446;-60
2023/11/14 04:10:31;;;;;;;5.17;2.40;;;10.10;99.90;;;;;;5079336;28;20549;-60
2023/11/14 04:12:58;;;;;;;5.53;3.30;;;10.10;99.90;;;;;;5079225;28;20443;-59
2023/11/14 04:15:26;;;;;;;9.17;1.50;;;10.10;99.90;;;;;;5079616;28;20508;-61
2023/11/14 04:17:53;;;;;;;12.00;2.80;;;10.20;99.90;;;;;;5079672;28;20442;-59
2023/11/14 04:20:19;;;;;;;7.10;2.23;;;10.20;99.90;;;;;;5079229;28;20791;-61
2023/11/14 04:22:46;;;;;;;13.57;2.27;;;10.20;99.90;;;;;;5079142;28;20553;-60
2023/11/14 04:25:14;;;;;;;8.37;1.90;;;10.20;99.90;;;;;;5078947;28;20545;-60
2023/11/14 04:27:41;;;;;;;14.47;2.83;;;10.20;99.90;;;;;;5079716;28;20593;-60
2023/11/14 04:30:10;;;;;;;15.47;2.60;;;10.30;99.90;;;;;;5079359;28;20917;-61
2023/11/14 04:32:37;;;;;;;3.03;1.80;;;10.30;99.90;;;;;;5078754;28;20484;-60
2023/11/14 04:35:04;;;;;;;12.23;2.63;;;10.30;99.90;;;;;;5078181;28;20497;-61
2023/11/14 04:37:31;;;;;;;14.60;3.40;;;10.40;99.90;;;;;;5079024;28;20457;-61
2023/11/14 04:40:01;;;;;;;10.30;1.90;;;10.40;99.90;;;;;;5079193;28;20465;-60
2023/11/14 04:42:32;;;;;;;6.63;2.27;;;10.20;99.90;;;;;;5079170;28;20478;-60
2023/11/14 04:44:59;;;;;;;5.43;1.63;;;10.40;99.90;;;;;;5078768;28;20486;-61
2023/11/14 04:47:26;;;;;;;17.50;2.50;;;10.50;99.90;;;;;;5079232;28;20473;-59
2023/11/14 04:49:53;;;;;;;4.00;1.80;;;10.50;99.90;;;;;;5078096;28;20446;-60
2023/11/14 04:52:21;;;;;;;10.87;1.97;;;10.50;99.90;;;;;;5079043;28;20449;-61
2023/11/14 04:54:49;;;;;;;18.53;2.73;;;10.60;99.90;;;;;;5078284;28;20470;-61
2023/11/14 04:57:16;;;;;;;4.63;2.00;;;10.60;99.90;;;;;;5078811;28;20485;-61
2023/11/14 04:59:44;;;;;;;4.63;2.53;;;10.60;99.90;;;;;;5079390;28;20484;-59
2023/11/14 05:02:11;;;;;;;6.10;2.00;;;10.70;99.90;;;;;;5078031;28;20998;-60
2023/11/14 05:04:38;;;;;;;10.93;2.83;;;10.70;99.90;;;;;;5078615;28;20482;-60
2023/11/14 05:07:08;;;;;;;9.27;1.70;;;10.80;99.90;;;;;;5078807;28;20557;-61
2023/11/14 05:09:35;;;;;;;17.20;2.63;;;10.80;99.90;;;;;;5078140;28;20477;-60
2023/11/14 05:12:02;;;;;;;9.27;2.10;;;10.80;99.90;;;;;;5078593;28;20564;-61
2023/11/14 05:14:29;;;;;;;8.97;2.00;;;10.90;99.90;;;;;;5078503;28;20530;-61
2023/11/14 05:16:57;;;;;;;7.93;2.37;;;10.90;99.90;;;;;;5077678;28;20565;-60
2023/11/14 05:19:24;;;;;;;7.93;2.20;;;10.90;99.90;;;;;;5078025;28;20486;-60
2023/11/14 05:21:51;;;;;;;8.97;2.13;;;10.90;99.90;;;;;;5078342;28;20512;-60
2023/11/14 05:24:18;;;;;;;9.60;1.83;;;10.90;99.90;;;;;;5078334;28;20473;-60
2023/11/14 05:26:45;;;;;;;4.10;2.37;;;10.90;99.90;;;;;;5077953;28;20466;-62
2023/11/14 05:29:12;;;;;;;5.27;1.87;;;10.90;99.90;;;;;;5078924;28;20474;-61
2023/11/14 05:31:39;;;;;;;5.80;1.67;;;11.00;99.90;;;;;;5078044;28;20442;-60
2023/11/14 05:34:08;;;;;;;7.80;2.03;;;11.00;99.90;;;;;;5078049;28;20544;-59
2023/11/14 05:36:36;;;;;;;9.63;2.60;;;11.00;99.90;;;;;;5077420;28;20967;-60
2023/11/14 05:39:03;;;;;;;7.27;2.00;;;11.00;99.90;;;;;;5077402;28;20442;-60
2023/11/14 05:41:30;;;;;;;9.00;2.37;;;11.00;99.90;;;;;;5077027;28;20447;-59
2023/11/14 05:43:58;;;;;;;3.00;1.90;;;11.10;99.90;;;;;;5077654;28;20442;-61
2023/11/14 05:46:25;;;;;;;8.10;2.27;;;11.10;99.90;;;;;;5081026;28;20478;-59
2023/11/14 05:48:52;;;;;;;6.57;2.40;;;11.10;99.90;;;;;;5081742;28;20835;-61
2023/11/14 05:51:20;;;;;;;8.20;2.27;;;11.10;99.90;;;;;;5082548;28;20972;-61
2023/11/14 05:53:47;;;;;;;5.87;1.77;;;11.10;99.90;;;;;;5081520;28;20470;-61
2023/11/14 05:56:15;;;;;;;9.10;1.83;;;11.10;99.90;;;;;;5081256;28;20465;-61
2023/11/14 05:58:42;;;;;;;6.13;1.90;;;11.20;99.90;;;;;;5081671;28;20474;-60
2023/11/14 06:01:10;;;;;;;6.60;2.83;;;11.10;99.90;;;;;;5081361;28;20442;-61
2023/11/14 06:03:37;;;;;;;5.57;1.60;;;11.20;99.90;;;;;;5081607;28;20476;-60
2023/11/14 06:06:06;;;;;;;6.23;2.33;;;11.10;99.90;;;;;;5080130;28;20478;-59
2023/11/14 06:08:34;;;;;;;10.87;2.43;;;11.20;99.90;;;;;;5081679;28;20801;-60
2023/11/14 06:11:02;;;;;;;15.30;2.27;;;11.20;99.90;;;;;;5081520;28;20447;-60
2023/11/14 06:13:29;;;;;;;12.43;2.20;;;11.20;99.90;;;;;;5081984;28;20471;-61
2023/11/14 06:15:55;;;;;;;7.27;2.00;;;11.20;99.90;;;;;;5088547;28;20501;-61
2023/11/14 06:18:22;;;;;;;8.30;2.40;;;11.20;99.90;;;;;;5083703;28;21026;-60
2023/11/14 06:20:51;;;;;;;7.93;1.87;;;11.30;99.90;;;;;;5083502;28;20442;-61
2023/11/14 06:23:19;;;;;;;8.23;2.13;;;11.30;99.90;;;;;;5080196;28;20624;-60
2023/11/14 06:25:47;;;;;;;12.93;2.07;;;11.30;99.90;;;;;;5083574;28;20470;-60
2023/11/14 06:28:14;;;;;;;10.93;2.00;;;11.30;99.90;;;;;;5082505;28;20552;-60
2023/11/14 06:30:41;;;;;;;7.10;2.60;;;11.20;99.90;;;;;;5082139;28;20458;-61
2023/11/14 06:33:08;;;;;;;8.80;2.40;;;11.20;99.90;;;;;;5081231;28;20939;-60
2023/11/14 06:35:36;;;;;;;6.23;3.40;;;11.20;99.90;;;;;;5080477;28;20454;-60
2023/11/14 06:38:03;;;;;;;15.80;2.47;;;11.20;99.90;;;;;;5080170;28;20442;-61
2023/11/14 06:40:31;;;;;;;19.30;2.30;;;11.20;99.90;;;;;;5080895;28;20545;-60
2023/11/14 06:43:00;;;;;;;23.73;3.00;;;11.20;99.90;;;;;;5080504;28;20484;-60
2023/11/14 06:45:26;;;;;;;5.33;1.80;;;11.20;99.90;;;;;;5080308;28;20509;-61
2023/11/14 06:47:54;;;;;;;7.97;2.70;;;11.30;99.90;;;;;;5080824;28;20526;-60
2023/11/14 06:50:21;;;;;;;10.03;2.90;;;11.30;99.90;;;;;;5080127;28;20566;-60
2023/11/14 06:52:47;;;;;;;4.13;1.73;;;11.30;99.90;;;;;;5080182;28;20457;-62
2023/11/14 06:55:14;;;;;;;9.03;2.27;;;11.40;99.90;;;;;;5080709;28;20497;-59
2023/11/14 06:57:42;;;;;;;8.67;3.63;;;11.40;99.90;;;;;;5079586;28;20481;-60
2023/11/14 07:00:14;;;;;;;11.60;2.50;;;11.40;99.90;;;;;;5080023;28;20474;-61
2023/11/14 07:02:42;;;;;;;9.40;2.30;;;11.40;99.90;;;;;;5079901;28;20435;-61
2023/11/14 07:05:10;;;;;;;9.07;2.30;;;11.40;99.90;;;;;;5079431;28;20962;-59
2023/11/14 07:07:38;;;;;;;10.70;2.33;;;11.50;99.90;;;;;;5080229;28;20454;-60
2023/11/14 07:10:06;;;;;;;13.67;2.77;;;11.50;99.90;;;;;;5080475;28;20463;-60
2023/11/14 07:12:33;;;;;;;9.13;2.30;;;11.40;99.90;;;;;;5080084;28;20904;-60
2023/11/14 07:15:01;;;;;;;15.77;3.20;;;11.40;99.90;;;;;;5079774;28;20466;-60
2023/11/14 07:17:29;;;;;;;6.83;2.43;;;11.40;99.90;;;;;;5079502;28;20453;-61
2023/11/14 07:19:57;;;;;;;11.70;2.23;;;11.40;99.90;;;;;;5079264;28;20480;-61
2023/11/14 07:22:24;;;;;;;13.27;2.60;;;11.50;99.90;;;;;;5079790;28;20856;-61
2023/11/14 07:24:52;;;;;;;8.60;2.50;;;11.50;99.90;;;;;;5079561;28;20530;-60
2023/11/14 07:27:19;;;;;;;4.23;1.33;;;11.50;99.90;;;;;;5078686;28;20476;-63
2023/11/14 07:29:46;;;;;;;19.57;5.47;;;11.60;99.90;;;;;;5078760;28;20447;-58
2023/11/14 07:32:13;;;;;;;6.63;3.17;;;11.50;99.90;;;;;;5079281;28;20513;-62
2023/11/14 07:34:43;;;;;;;10.10;3.43;;;11.60;99.90;;;;;;5079386;28;20504;-62
2023/11/14 07:37:10;;;;;;;9.20;2.27;;;11.50;99.90;;;;;;5079530;28;20500;-62
2023/11/14 07:39:37;;;;;;;3.93;1.63;;;11.60;99.90;;;;;;5079031;28;20438;-62
2023/11/14 07:42:05;;;;;;;3.40;1.97;;;11.60;99.90;;;;;;5078728;28;20446;-60
2023/11/14 07:44:31;;;;;;;7.60;1.77;;;11.60;99.90;;;;;;5078989;28;20446;-62
2023/11/14 07:46:58;;;;;;;11.20;2.20;;;11.60;99.90;;;;;;5079188;28;20573;-61
2023/11/14 07:49:25;;;;;;;4.57;1.90;;;11.60;99.90;;;;;;5079268;28;20474;-61
2023/11/14 07:51:53;;;;;;;10.47;3.50;;;11.60;99.90;;;;;;5078989;28;20492;-61
2023/11/14 07:54:22;;;;;;;5.37;1.70;;;11.60;99.90;;;;;;5079435;28;20474;-60
2023/11/14 07:56:49;;;;;;;12.93;2.20;;;11.70;99.90;;;;;;5079288;28;20470;-61
2023/11/14 07:59:16;;;;;;;10.33;1.80;;;11.70;99.90;;;;;;5078656;28;20541;-62
2023/11/14 08:01:43;;;;;;;4.80;1.90;;;11.80;99.90;;;;;;5078653;28;20500;-59
2023/11/14 08:04:11;;;;;;;8.90;2.80;;;11.80;99.90;;;;;;5078701;28;20529;-61
2023/11/14 08:06:38;;;;;;;8.93;1.90;;;11.80;99.90;;;;;;5079426;28;20478;-61
2023/11/14 08:09:07;;;;;;;7.77;2.80;;;11.80;99.90;;;;;;5079142;28;20431;-62
2023/11/14 08:11:37;;;;;;;9.93;2.80;;;11.90;99.90;;;;;;5078239;28;20770;-61
2023/11/14 08:14:04;;;;;;;8.90;2.17;;;11.90;99.90;;;;;;5078698;28;20446;-62
2023/11/14 08:16:31;;;;;;;3.73;2.00;;;11.90;99.90;;;;;;5078613;28;20903;-60
2023/11/14 08:18:59;;;;;;;5.80;2.00;;;12.00;99.90;;;;;;5077785;28;20557;-61
2023/11/14 08:21:25;;;;;;;5.87;2.07;;;12.00;99.90;;;;;;5078013;28;20442;-61
2023/11/14 08:23:53;;;;;;;19.67;3.30;;;12.00;99.90;;;;;;5078500;28;20446;-62
2023/11/14 08:26:21;;;;;;;9.50;2.20;;;12.10;99.90;;;;;;5078079;28;20975;-62
2023/11/14 08:28:48;;;;;;;13.30;2.50;;;12.10;99.90;;;;;;5077996;28;20477;-61
2023/11/14 08:31:17;;;;;;;7.70;2.30;;;12.10;99.90;;;;;;5077559;28;20438;-59
2023/11/14 08:33:44;;;;;;;4.97;1.87;;;12.10;99.90;;;;;;5078062;28;20619;-62
2023/11/14 08:36:11;;;;;;;10.97;2.63;;;12.10;99.90;;;;;;5078084;28;20457;-61
2023/11/14 08:38:40;;;;;;;4.87;2.30;;;12.10;99.90;;;;;;5077395;28;20466;-62
2023/11/14 08:41:07;;;;;;;5.87;2.00;;;12.10;99.90;;;;;;5078031;28;20442;-61
2023/11/14 08:43:36;;;;;;;8.50;2.83;;;12.10;99.90;;;;;;5077708;28;20507;-59
2023/11/14 08:46:03;;;;;;;10.00;2.70;;;12.10;99.90;;;;;;5077750;28;20458;-61
2023/11/14 08:48:30;;;;;;;10.10;2.13;;;12.10;99.90;;;;;;5077996;28;20551;-61
2023/11/14 08:50:57;;;;;;;11.57;3.17;;;12.10;99.90;;;;;;5077852;28;20789;-57
2023/11/14 08:53:26;;;;;;;6.77;1.80;;;12.20;99.90;;;;;;5089737;28;20523;-57
2023/11/14 08:55:53;;;;;;;8.50;2.17;;;12.40;99.90;;;;;;5095268;28;20450;-60
2023/11/14 08:58:20;;;;;;;8.70;2.20;;;12.50;99.90;;;;;;5095863;28;20407;-59
2023/11/14 09:00:49;;;;;;;7.53;1.93;;;12.50;99.90;;;;;;5095686;28;20473;-59
2023/11/14 09:03:18;;;;;;;5.87;2.03;;;12.50;99.90;;;;;;5095338;28;20508;-61
2023/11/14 09:05:46;;;;;;;5.53;2.07;;;12.50;99.90;;;;;;5080204;28;20452;-59
2023/11/14 09:08:13;;;;;;;7.33;2.40;;;12.50;99.90;;;;;;5091532;28;20458;-60
2023/11/14 09:10:40;;;;;;;3.60;1.93;;;12.50;99.90;;;;;;5077890;28;20535;-61
2023/11/14 09:13:11;;;;;;;7.90;2.03;;;12.50;99.90;;;;;;5077910;28;20797;-61
2023/11/14 09:15:41;;;;;;;8.30;2.50;;;12.50;99.90;;;;;;5085876;28;20477;-56
2023/11/14 09:18:13;;;;;;;10.47;2.07;;;12.50;99.90;;;;;;5086031;28;20445;-58
2023/11/14 09:20:40;;;;;;;4.43;1.60;;;12.50;99.90;;;;;;5096378;28;20546;-58
2023/11/14 09:23:09;;;;;;;11.77;2.37;;;12.50;99.90;;;;;;5096950;28;20461;-58
2023/11/14 09:25:35;;;;;;;11.17;2.30;;;12.60;99.90;;;;;;5098720;28;20447;-61
2023/11/14 09:28:03;;;;;;;4.30;2.13;;;12.60;99.90;;;;;;5098934;28;20462;-60
2023/11/14 09:30:30;;;;;;;7.53;2.73;;;12.60;99.90;;;;;;5098954;28;20442;-59
2023/11/14 09:32:57;;;;;;;11.70;1.70;;;12.70;99.90;;;;;;5098807;28;20437;-58
2023/11/14 09:35:26;;;;;;;10.37;2.50;;;12.70;99.90;;;;;;5098820;28;20426;-53
2023/11/14 09:37:54;;;;;;;6.83;2.33;;;12.80;99.90;;;;;;5098649;28;20446;-58
2023/11/14 09:40:22;;;;;;;9.60;2.47;;;12.80;99.90;;;;;;5098532;28;20522;-57
2023/11/14 09:42:50;;;;;;;7.70;3.60;;;12.80;99.90;;;;;;5099266;28;20453;-59
2023/11/14 09:45:20;;;;;;;6.60;1.60;;;12.80;99.90;;;;;;5098493;28;20507;-62
2023/11/14 09:47:49;;;;;;;15.00;2.57;;;12.80;99.90;;;;;;5094773;28;20786;-60
2023/11/14 09:50:17;;;;;;;9.50;4.50;;;12.80;99.90;;;;;;5081257;28;20446;-61
2023/11/14 09:52:46;;;;;;;13.87;4.30;;;12.90;99.90;;;;;;5081564;28;20478;-60
2023/11/14 09:55:14;;;;;;;5.43;1.90;;;13.00;99.90;;;;;;5093179;28;20443;-60
2023/11/14 09:57:44;;;;;;;5.70;2.20;;;13.10;99.90;;;;;;5092457;28;20778;-56
2023/11/14 10:00:15;;;;;;;10.33;1.70;;;13.20;99.90;;;;;;5092920;28;20461;-59
2023/11/14 10:02:42;;;;;;;6.07;2.20;;;13.20;99.90;;;;;;5093639;28;20731;-60
2023/11/14 10:05:10;;;;;;;5.37;2.00;;;13.30;99.90;;;;;;5077089;28;20504;-60
2023/11/14 10:07:36;;;;;;;13.73;1.80;;;13.40;99.90;;;;;;5076861;28;21040;-62
2023/11/14 10:10:06;;;;;;;8.00;1.90;;;13.50;99.90;;;;;;5076741;28;20438;-60
2023/11/14 10:12:34;;;;;;;15.37;2.30;;;13.40;99.90;;;;;;5077163;28;20435;-62
2023/11/14 10:15:01;;;;;;;6.17;1.73;;;13.40;99.90;;;;;;5076799;28;20454;-62
2023/11/14 10:17:40;;;;;;;5.83;2.40;;;13.40;99.90;;;;;;5077012;28;20832;-60
2023/11/14 10:20:08;;;;;;;8.60;3.37;;;13.40;99.90;;;;;;5076845;28;20454;-62
2023/11/14 10:22:36;;;;;;;13.77;2.13;;;13.30;99.90;;;;;;5076871;28;20466;-61
2023/11/14 10:25:05;;;;;;;4.77;1.70;;;13.20;99.90;;;;;;5076992;28;20423;-61
2023/11/14 10:27:35;;;;;;;8.20;1.93;;;13.20;99.90;;;;;;5077526;28;20478;-60
2023/11/14 10:30:02;;;;;;;3.67;1.80;;;13.10;99.90;;;;;;5076372;28;20466;-60
2023/11/14 10:32:30;;;;;;;6.73;2.73;;;13.20;99.90;;;;;;5076304;28;20438;-61
2023/11/14 10:35:15;;;;;;;9.73;2.43;;;13.20;99.90;;;;;;5077059;28;20461;-62
2023/11/14 10:37:42;;;;;;;8.07;2.80;;;13.20;99.90;;;;;;5076689;28;20465;-60
2023/11/14 10:40:11;;;;;;;8.80;2.17;;;13.30;99.90;;;;;;5076325;28;20453;-60
2023/11/14 10:42:38;;;;;;;13.33;2.70;;;13.40;99.90;;;;;;5076226;28;20466;-61
2023/11/14 10:45:07;;;;;;;5.60;2.13;;;13.40;99.90;;;;;;5076568;28;20454;-60
2023/11/14 10:47:41;;;;;;;10.37;2.30;;;13.50;99.90;;;;;;5076306;28;20478;-61
2023/11/14 10:50:26;;;;;;;3.67;1.40;;;13.60;99.90;;;;;;5076397;28;20743;-61
2023/11/14 10:52:54;;;;;;;14.13;2.00;;;13.60;99.90;;;;;;5076774;28;20433;-60
2023/11/14 10:55:23;;;;;;;10.20;2.23;;;13.80;99.90;;;;;;5075841;28;20505;-61
2023/11/14 10:57:51;;;;;;;8.27;2.13;;;13.90;99.90;;;;;;5076379;28;20435;-61
2023/11/14 11:00:20;;;;;;;10.80;2.57;;;13.90;99.90;;;;;;5076191;28;20478;-60
2023/11/14 11:02:50;;;;;;;2.60;2.30;;;13.90;99.90;;;;;;5075778;28;20470;-62
2023/11/14 11:05:20;;;;;;;10.33;2.33;;;13.90;99.90;;;;;;5075994;28;20438;-60
2023/11/14 11:07:47;;;;;;;11.07;3.17;;;13.90;99.90;;;;;;5075498;28;20486;-57
2023/11/14 11:10:16;;;;;;;10.40;2.20;;;14.00;99.90;;;;;;5075771;28;20435;-58
2023/11/14 11:12:46;;;;;;;7.63;1.93;;;13.90;99.90;;;;;;5075550;28;20478;-60
2023/11/14 11:15:14;;;;;;;8.93;2.97;;;13.90;99.90;;;;;;5075806;28;20796;-60
2023/11/14 11:17:43;;;;;;;4.67;1.93;;;13.90;99.90;;;;;;5075485;28;20438;-57
2023/11/14 11:20:21;;;;;;;6.13;2.70;;;13.90;99.90;;;;;;5075486;28;20523;-62
2023/11/14 11:23:08;;;;;;;8.67;2.30;;;12.90;99.90;;;;;;5075767;28;20501;-60
2023/11/14 11:25:35;;;;;;;11.20;1.97;;;13.80;99.90;;;;;;5076553;28;20441;-60
2023/11/14 11:28:32;;;;;;;4.40;2.50;;;13.80;99.90;;;;;;5076137;28;20528;-59
2023/11/14 11:31:11;;;;;;;5.73;1.70;;;13.70;99.90;;;;;;5076856;28;20441;-62
2023/11/14 11:33:39;;;;;;;5.77;1.97;;;13.70;99.90;;;;;;5077095;28;20444;-58
2023/11/14 11:36:29;;;;;;;6.50;1.80;;;13.80;99.90;;;;;;5076044;28;20437;-59
2023/11/14 11:38:57;;;;;;;4.03;1.50;;;13.70;99.90;;;;;;5077476;28;20957;-60
2023/11/14 11:41:25;;;;;;;10.23;2.30;;;13.80;99.90;;;;;;5079645;28;20462;-62
2023/11/14 11:44:04;;;;;;;6.93;2.30;;;13.80;99.90;;;;;;5079981;28;20508;-58
2023/11/14 11:46:45;;;;;;;7.27;2.13;;;13.80;99.90;;;;;;5078827;28;20477;-60
2023/11/14 11:49:31;;;;;;;9.13;2.00;;;13.70;99.90;;;;;;5079735;28;20479;-62
2023/11/14 11:52:14;;;;;;;8.43;3.87;;;13.70;99.90;;;;;;5079020;28;20431;-59
2023/11/14 11:54:41;;;;;;;12.10;2.47;;;13.70;99.90;;;;;;5078826;28;20435;-60
2023/11/14 11:57:10;;;;;;;7.73;1.90;;;13.70;99.90;;;;;;5078676;28;20525;-60
2023/11/14 12:00:17;;;;;;;3.90;1.97;;;13.70;99.90;;;;;;5078910;28;20458;-61
2023/11/14 12:02:47;;;;;;;6.83;2.90;;;13.70;99.90;;;;;;5078855;28;20529;-60
2023/11/14 12:05:17;;;;;;;7.83;2.07;;;13.60;99.90;;;;;;5078746;28;20712;-58
2023/11/14 12:07:45;;;;;;;13.43;2.93;;;13.60;99.90;;;;;;5079007;28;20478;-61
2023/11/14 12:10:16;;;;;;;6.10;1.70;;;13.60;99.90;;;;;;5078633;28;20839;-62
2023/11/14 12:12:44;;;;;;;7.20;2.23;;;13.60;99.90;;;;;;5079612;28;20426;-60
2023/11/14 12:15:16;;;;;;;9.43;2.37;;;13.60;99.90;;;;;;5079074;28;20481;-59
2023/11/14 12:17:49;;;;;;;8.40;1.87;;;13.60;99.90;;;;;;5079282;28;20505;-60
2023/11/14 12:20:16;;;;;;;12.50;3.40;;;13.50;99.90;;;;;;5079251;28;20815;-62
2023/11/14 12:22:44;;;;;;;4.57;1.90;;;13.50;99.90;;;;;;5079321;28;20527;-59
2023/11/14 12:25:11;;;;;;;4.67;2.20;;;13.50;99.90;;;;;;5079209;28;20545;-60
2023/11/14 12:27:38;;;;;;;6.30;2.20;;;13.50;99.90;;;;;;5078440;28;20478;-61
2023/11/14 12:30:07;;;;;;;6.90;2.63;;;13.40;99.90;;;;;;5079232;28;20470;-58
2023/11/14 12:32:35;;;;;;;11.93;2.60;;;13.40;99.90;;;;;;5078194;28;20450;-62
2023/11/14 12:35:04;;;;;;;4.60;2.53;;;13.40;99.90;;;;;;5078347;28;20442;-60
2023/11/14 12:37:31;;;;;;;7.73;2.70;;;13.50;99.90;;;;;;5078551;28;20434;-61
2023/11/14 12:40:06;;;;;;;6.63;2.33;;;13.50;99.90;;;;;;5077895;28;20474;-61
2023/11/14 12:42:34;;;;;;;9.23;2.13;;;13.50;99.90;;;;;;5078379;28;20469;-59
2023/11/14 12:45:05;;;;;;;7.23;2.00;;;13.50;99.90;;;;;;5077526;28;20541;-59
2023/11/14 12:47:34;;;;;;;8.10;2.30;;;13.40;99.90;;;;;;5077759;28;20496;-59
2023/11/14 12:50:02;;;;;;;3.13;2.10;;;13.40;99.90;;;;;;5077801;28;20529;-61
2023/11/14 12:52:30;;;;;;;6.17;2.60;;;13.40;99.90;;;;;;5077550;28;20438;-60
2023/11/14 12:54:59;;;;;;;8.73;2.67;;;13.50;99.90;;;;;;5078921;28;20466;-61